地図

経路データ

SID SEASON NUMBER BASIN SUBBASIN NAME ISO_TIME NATURE LAT LON WMO_WIND WMO_PRES WMO_AGENCY TRACK_TYPE DIST2LAND LANDFALL IFLAG USA_AGENCY USA_ATCF_ID USA_LAT USA_LON USA_RECORD USA_STATUS USA_WIND USA_PRES USA_SSHS USA_R34_NE USA_R34_SE USA_R34_SW USA_R34_NW USA_R50_NE USA_R50_SE USA_R50_SW USA_R50_NW USA_R64_NE USA_R64_SE USA_R64_SW USA_R64_NW USA_POCI USA_ROCI USA_RMW USA_EYE TOKYO_LAT TOKYO_LON TOKYO_GRADE TOKYO_WIND TOKYO_PRES TOKYO_R50_DIR TOKYO_R50_LONG TOKYO_R50_SHORT TOKYO_R30_DIR TOKYO_R30_LONG TOKYO_R30_SHORT TOKYO_LAND CMA_LAT CMA_LON CMA_CAT CMA_WIND CMA_PRES HKO_LAT HKO_LON HKO_CAT HKO_WIND HKO_PRES NEWDELHI_LAT NEWDELHI_LON NEWDELHI_GRADE NEWDELHI_WIND NEWDELHI_PRES NEWDELHI_CI NEWDELHI_DP NEWDELHI_POCI REUNION_LAT REUNION_LON REUNION_TYPE REUNION_WIND REUNION_PRES REUNION_TNUM REUNION_CI REUNION_RMW REUNION_R34_NE REUNION_R34_SE REUNION_R34_SW REUNION_R34_NW REUNION_R50_NE REUNION_R50_SE REUNION_R50_SW REUNION_R50_NW REUNION_R64_NE REUNION_R64_SE REUNION_R64_SW REUNION_R64_NW BOM_LAT BOM_LON BOM_TYPE BOM_WIND BOM_PRES BOM_TNUM BOM_CI BOM_RMW BOM_R34_NE BOM_R34_SE BOM_R34_SW BOM_R34_NW BOM_R50_NE BOM_R50_SE BOM_R50_SW BOM_R50_NW BOM_R64_NE BOM_R64_SE BOM_R64_SW BOM_R64_NW BOM_ROCI BOM_POCI BOM_EYE BOM_POS_METHOD BOM_PRES_METHOD NADI_LAT NADI_LON NADI_CAT NADI_WIND NADI_PRES WELLINGTON_LAT WELLINGTON_LON WELLINGTON_WIND WELLINGTON_PRES DS824_LAT DS824_LON DS824_STAGE DS824_WIND DS824_PRES TD9636_LAT TD9636_LON TD9636_STAGE TD9636_WIND TD9636_PRES TD9635_LAT TD9635_LON TD9635_WIND TD9635_PRES TD9635_ROCI NEUMANN_LAT NEUMANN_LON NEUMANN_CLASS NEUMANN_WIND NEUMANN_PRES MLC_LAT MLC_LON MLC_CLASS MLC_WIND MLC_PRES USA_GUST BOM_GUST BOM_GUST_PER REUNION_GUST REUNION_GUST_PER USA_SEAHGT USA_SEARAD_NE USA_SEARAD_SE USA_SEARAD_SW USA_SEARAD_NW STORM_SPEED STORM_DIR
1924267N09089 1924 35 NI BB NOT_NAMED 1924-09-23 00:00:00 TS 8.60000 88.9000 main 772 739 _________O____ -1 8.60000 88.9000 TC 30 11 293
1924267N09089 1924 35 NI BB NOT_NAMED 1924-09-23 03:00:00 TS 8.80346 88.4118 main 739 671 _________PO___ -1 8.90519 88.1676 TC 30 8.60000 88.9000 1 13 292
1924267N09089 1924 35 NI BB NOT_NAMED 1924-09-23 06:00:00 TS 9.08677 87.6812 main 671 592 _________OP___ -1 9.20000 87.4000 TC 30 8.91694 88.1029 1 16 291
1924267N09089 1924 35 NI BB NOT_NAMED 1924-09-23 09:00:00 TS 9.36276 86.8974 main 596 533 _________PP___ -1 9.47251 86.5850 TC 30 9.21644 87.3139 1 16 289
1924267N09089 1924 35 NI BB NOT_NAMED 1924-09-23 12:00:00 TS 9.59134 86.1715 main 533 473 _________OP___ -1 9.70000 85.8000 TC 30 9.48267 86.5430 1 15 286
1924267N09089 1924 35 NI BB NOT_NAMED 1924-09-23 15:00:00 TS 9.78239 85.4599 main 473 409 _________PO___ -1 9.86478 85.1198 TC 30 9.70000 85.8000 1 14 284
1924267N09089 1924 35 NI BB NOT_NAMED 1924-09-23 18:00:00 TS 9.93060 84.7973 main 409 356 _________OP___ -1 10.0000 84.5000 TC 30 9.86119 85.0947 1 13 282
1924267N09089 1924 35 NI BB NOT_NAMED 1924-09-23 21:00:00 TS 10.0635 84.1533 main 361 312 _________PP___ -1 10.1350 83.8699 TC 30 9.99213 84.4367 1 12 283
1924267N09089 1924 35 NI BB NOT_NAMED 1924-09-24 00:00:00 TS 10.2135 83.5677 main 312 280 _________OP___ -1 10.3000 83.3000 TC 30 10.1270 83.8354 1 11 288
1924267N09089 1924 35 NI BB NOT_NAMED 1924-09-24 03:00:00 TS 10.4099 83.0562 main 280 245 _________PO___ -1 10.5199 82.8124 TC 30 10.3000 83.3000 1 10 295
1924267N09089 1924 35 NI BB NOT_NAMED 1924-09-24 06:00:00 TS 10.6579 82.6134 main 252 235 _________OP___ -1 10.8000 82.4000 TC 30 10.5157 82.8268 1 10 303
1924267N09089 1924 35 NI BB NOT_NAMED 1924-09-24 09:00:00 TS 10.9421 82.2258 main 235 218 _________PP___ -1 11.1049 82.0348 TC 30 10.7794 82.4168 1 10 312
1924267N09089 1924 35 NI BB NOT_NAMED 1924-09-24 12:00:00 TS 11.3017 81.8742 main 218 167 _________OP___ -1 11.5000 81.7000 TC 30 11.1033 82.0485 1 11 320
1924267N09089 1924 35 NI BB NOT_NAMED 1924-09-24 15:00:00 TS 11.7600 81.5250 main 161 110 _________PO___ -1 12.0200 81.3500 TC 30 11.5000 81.7000 1 12 326
1924267N09089 1924 35 NI BB NOT_NAMED 1924-09-24 18:00:00 TS 12.2970 81.1799 main 110 75 _________OP___ -1 12.6000 81.0000 TC 30 11.9939 81.3597 1 13 329
1924267N09089 1924 35 NI BB NOT_NAMED 1924-09-24 21:00:00 TS 12.8596 80.8509 main 75 21 _________PP___ -1 13.1648 80.6723 TC 30 12.5544 81.0295 1 13 329
1924267N09089 1924 35 NI BB NOT_NAMED 1924-09-25 00:00:00 TS 13.4188 80.4922 main 21 0 _________OP___ -1 13.7000 80.3000 TC 30 13.1376 80.6845 1 13 324
1924267N09089 1924 35 NI BB NOT_NAMED 1924-09-25 03:00:00 TS 13.9325 80.0612 main 0 0 _________PO___ -1 14.1650 79.8224 TC 30 13.7000 80.3000 1 13 317
1924267N09089 1924 35 NI BB NOT_NAMED 1924-09-25 06:00:00 TS 14.3956 79.5655 main 0 0 _________OP___ -1 14.6000 79.3000 TC 30 14.1911 79.8310 1 13 314
1924267N09089 1924 35 NI BB NOT_NAMED 1924-09-25 09:00:00 TS 14.8589 79.0575 main 0 0 _________PP___ -1 15.0649 78.7924 TC 30 14.6528 79.3225 1 13 312
1924267N09089 1924 35 NI BB NOT_NAMED 1924-09-25 12:00:00 TS 15.2940 78.5514 main 0 0 _________OP___ -1 15.5000 78.3000 TC 30 15.0880 78.8028 1 13 311
1924267N09089 1924 35 NI BB NOT_NAMED 1924-09-25 15:00:00 TS 15.6787 78.0674 main 0 0 _________PO___ -1 15.8574 77.8347 TC 30 15.5000 78.3000 1 12 310
1924267N09089 1924 35 NI AS NOT_NAMED 1924-09-25 18:00:00 TS 16.0583 77.6124 main 0 0 _________OP___ -1 16.2000 77.4000 TC 30 15.9167 77.8248 1 12 312
1924267N09089 1924 35 NI AS NOT_NAMED 1924-09-25 21:00:00 TS 16.4624 77.1725 main 0 0 _________PP___ -1 16.6150 76.9701 TC 30 16.3098 77.3749 1 11 314
1924267N09089 1924 35 NI AS NOT_NAMED 1924-09-26 00:00:00 TS 16.8365 76.7812 main 0 0 _________OP___ -1 17.0000 76.6000 TC 30 16.6731 76.9625 1 10 315
1924267N09089 1924 35 NI AS NOT_NAMED 1924-09-26 03:00:00 TS 17.1362 76.4636 main 0 0 _________PO___ -1 17.2724 76.3272 TC 30 17.0000 76.6000 1 8 315
1924267N09089 1924 35 NI AS NOT_NAMED 1924-09-26 06:00:00 TS 17.3927 76.1954 main 0 0 _________OP___ -1 17.5000 76.1000 TC 30 17.2855 76.2908 1 7 315
1924267N09089 1924 35 NI AS NOT_NAMED 1924-09-26 09:00:00 TS 17.6435 75.9370 main 0 0 _________PP___ -1 17.7500 75.8425 TC 30 17.5369 76.0316 1 7 316
1924267N09089 1924 35 NI AS NOT_NAMED 1924-09-26 12:00:00 TS 17.8850 75.7033 main 0 0 _________OP___ -1 18.0000 75.6000 TC 30 17.7700 75.8066 1 6 319
1924267N09089 1924 35 NI AS NOT_NAMED 1924-09-26 15:00:00 TS 18.1250 75.4962 main 0 0 _________PO___ -1 18.2500 75.3924 TC 30 18.0000 75.6000 1 6 322
1924267N09089 1924 35 NI AS NOT_NAMED 1924-09-26 18:00:00 TS 18.3769 75.2947 main 0 0 _________OP___ -1 18.5000 75.2000 TC 30 18.2539 75.3894 1 6 323
1924267N09089 1924 35 NI AS NOT_NAMED 1924-09-26 21:00:00 TS 18.6286 75.0960 main 0 0 _________PP___ -1 18.7500 74.9999 TC 30 18.5073 75.1921 1 6 323
1924267N09089 1924 35 NI AS NOT_NAMED 1924-09-27 00:00:00 TS 18.8785 74.8994 main 0 0 _________OP___ -1 19.0000 74.8000 TC 30 18.7570 74.9988 1 6 323
1924267N09089 1924 35 NI AS NOT_NAMED 1924-09-27 03:00:00 TS 19.1287 74.7037 main 0 0 _________PO___ -1 19.2575 74.6074 TC 30 19.0000 74.8000 1 6 321
1924267N09089 1924 35 NI AS NOT_NAMED 1924-09-27 06:00:00 TS 19.3682 74.4830 main 0 0 _________OP___ -1 19.5000 74.4000 TC 30 19.2363 74.5660 1 6 316
1924267N09089 1924 35 NI AS NOT_NAMED 1924-09-27 09:00:00 TS 19.5863 74.2350 main 0 0 _________PP___ -1 19.7075 74.1425 TC 30 19.4651 74.3276 1 6 313
1924267N09089 1924 35 NI AS NOT_NAMED 1924-09-27 12:00:00 TS 19.7932 74.0002 main 0 0 _________OP___ -1 19.9000 73.9000 TC 30 19.6863 74.1004 1 6 316
1924267N09089 1924 35 NI AS NOT_NAMED 1924-09-27 15:00:00 TS 20.0000 73.8137 main 0 0 _________PO___ -1 20.1000 73.7274 TC 30 19.9000 73.9000 1 5 319
1924267N09089 1924 35 NI AS NOT_NAMED 1924-09-27 18:00:00 TS 20.1650 73.6549 main 0 0 _________OP___ -1 20.3000 73.6000 TC 30 20.0300 73.7098 1 4 317
1924267N09089 1924 35 NI AS NOT_NAMED 1924-09-27 21:00:00 TS 20.2950 73.5189 main 0 0 _________PP___ -1 20.4250 73.4849 TC 30 20.1650 73.5529 1 4 330
1924267N09089 1924 35 NI AS NOT_NAMED 1924-09-28 00:00:00 TS 20.5337 73.4223 main 0 0 _________OP___ -1 20.7000 73.4000 TC 30 20.3675 73.4446 1 7 348
1924267N09089 1924 35 NI AS NOT_NAMED 1924-09-28 03:00:00 TS 21.0162 73.3491 main 0 0 _________PO___ -1 21.3325 73.2981 TC 30 20.7000 73.4000 1 12 357
1924267N09089 1924 35 NI AS NOT_NAMED 1924-09-28 06:00:00 TS 21.6874 73.3475 main 0 0 _________OP___ -1 22.1000 73.3000 TC 30 21.2747 73.3949 1 14 5
1924267N09089 1924 35 NI AS NOT_NAMED 1924-09-28 09:00:00 TS 22.3811 73.4775 main 0 0 _________PP___ -1 22.7875 73.4970 TC 30 21.9746 73.4579 1 14 13
1924267N09089 1924 35 NI AS NOT_NAMED 1924-09-28 12:00:00 TS 23.0561 73.6960 main 0 0 _________OP___ -1 23.4000 73.8000 TC 30 22.7122 73.5919 1 13 19
1924267N09089 1924 35 NI AS NOT_NAMED 1924-09-28 15:00:00 TS 23.6399 73.9390 main 0 0 _________PO___ -1 23.8799 74.0780 TC 30 23.4000 73.8000 1 12 25
1924267N09089 1924 35 NI AS NOT_NAMED 1924-09-28 18:00:00 TS 24.1053 74.2291 main 0 0 _________OP___ -1 24.3000 74.4000 TC 30 23.9105 74.0583 1 11 33
1924267N09089 1924 35 NI AS NOT_NAMED 1924-09-28 21:00:00 TS 24.5511 74.5832 main 0 0 _________PP___ -1 24.7424 74.7778 TC 30 24.3598 74.3885 1 11 38
1924267N09089 1924 35 NI AS NOT_NAMED 1924-09-29 00:00:00 TS 24.9896 74.9872 main 0 0 _________OP___ -1 25.2000 75.2000 TC 30 24.7791 74.7745 1 12 40
1924267N09089 1924 35 NI AS NOT_NAMED 1924-09-29 03:00:00 TS 25.4499 75.4176 main 0 0 _________PO___ -1 25.6999 75.6352 TC 30 25.2000 75.2000 1 12 40
1924267N09089 1924 35 NI AS NOT_NAMED 1924-09-29 06:00:00 TS 25.9359 75.8677 main 0 0 _________OP___ -1 26.2000 76.1000 TC 30 25.6718 75.6353 1 13 41
1924267N09089 1924 35 NI AS NOT_NAMED 1924-09-29 09:00:00 TS 26.4037 76.3492 main 0 0 _________PP___ -1 26.6574 76.5929 TC 30 26.1499 76.1056 1 13 43
1924267N09089 1924 35 NI AS NOT_NAMED 1924-09-29 12:00:00 TS 26.8640 76.8490 main 0 0 _________OP___ -1 27.1000 77.1000 TC 30 26.6280 76.5981 1 13 44
1924267N09089 1924 35 NI AS NOT_NAMED 1924-09-29 15:00:00 TS 27.3249 77.3502 main 0 0 _________PO___ -1 27.5498 77.6004 TC 30 27.1000 77.1000 1 12 44
1924267N09089 1924 35 NI AS NOT_NAMED 1924-09-29 18:00:00 TS 27.7494 77.8147 main 0 0 _________OP___ -1 28.0000 78.1000 TC 30 27.5615 77.6007 1 12 44
1924267N09089 1924 35 NI BB NOT_NAMED 1924-09-29 21:00:00 TS 28.1883 78.2994 main 0 0 _________PP___ -1 28.4504 78.5991 TC 30 28.0136 78.0996 1 12 44
1924267N09089 1924 35 NI BB NOT_NAMED 1924-09-30 00:00:00 TS 28.6060 78.7658 main 0 0 _________OP___ -1 28.9000 79.1000 TC 30 28.4590 78.5987 1 10 45
1924267N09089 1924 35 NI BB NOT_NAMED 1924-09-30 03:00:00 NR 28.9000 79.1000 main 0 __________O___ -1 TC 28.9000 79.1000 1 8 45

IBTrACS Databaseについて

本データベースは、米国NOAAが公開する1842年以降の世界の熱帯低気圧のベストトラックデータアーカイブInternational Best Track Archive for Climate Stewardship (IBTrACS)を、ウェブで閲覧しやすい形式に変換したものです。

最終更新日:2021-10-25